sensor_id;sensor_type;location;lat;lon;timestamp;P1;durP1;ratioP1;P2;durP2;ratioP2
23304;SDS011;11821;51.456;8.844;2023-04-03T00:02:02;5.18;;;3.08;;
23304;SDS011;11821;51.456;8.844;2023-04-03T00:04:28;4.45;;;2.40;;
23304;SDS011;11821;51.456;8.844;2023-04-03T00:06:55;4.45;;;2.15;;
23304;SDS011;11821;51.456;8.844;2023-04-03T00:09:22;6.18;;;3.00;;
23304;SDS011;11821;51.456;8.844;2023-04-03T00:11:48;10.25;;;3.67;;
23304;SDS011;11821;51.456;8.844;2023-04-03T00:14:15;7.30;;;2.90;;
23304;SDS011;11821;51.456;8.844;2023-04-03T00:16:42;4.70;;;1.90;;
23304;SDS011;11821;51.456;8.844;2023-04-03T00:19:08;17.80;;;10.98;;
23304;SDS011;11821;51.456;8.844;2023-04-03T00:21:37;10.57;;;3.75;;
23304;SDS011;11821;51.456;8.844;2023-04-03T00:24:04;5.93;;;2.25;;
23304;SDS011;11821;51.456;8.844;2023-04-03T00:26:30;4.38;;;1.60;;
23304;SDS011;11821;51.456;8.844;2023-04-03T00:28:57;5.45;;;3.00;;
23304;SDS011;11821;51.456;8.844;2023-04-03T00:31:23;6.93;;;2.15;;
23304;SDS011;11821;51.456;8.844;2023-04-03T00:33:50;3.60;;;1.88;;
23304;SDS011;11821;51.456;8.844;2023-04-03T00:36:17;5.00;;;3.10;;
23304;SDS011;11821;51.456;8.844;2023-04-03T00:38:44;1.98;;;1.42;;
23304;SDS011;11821;51.456;8.844;2023-04-03T00:41:10;3.53;;;1.50;;
23304;SDS011;11821;51.456;8.844;2023-04-03T00:43:37;2.20;;;1.55;;
23304;SDS011;11821;51.456;8.844;2023-04-03T00:46:04;3.45;;;1.63;;
23304;SDS011;11821;51.456;8.844;2023-04-03T00:48:51;2.70;;;1.52;;
23304;SDS011;11821;51.456;8.844;2023-04-03T00:51:18;4.00;;;1.40;;
23304;SDS011;11821;51.456;8.844;2023-04-03T00:53:47;6.22;;;1.90;;
23304;SDS011;11821;51.456;8.844;2023-04-03T00:56:16;5.07;;;1.55;;
23304;SDS011;11821;51.456;8.844;2023-04-03T00:58:45;3.33;;;1.33;;
23304;SDS011;11821;51.456;8.844;2023-04-03T01:01:15;4.55;;;2.38;;
23304;SDS011;11821;51.456;8.844;2023-04-03T01:03:42;11.88;;;7.10;;
23304;SDS011;11821;51.456;8.844;2023-04-03T01:06:09;17.40;;;8.43;;
23304;SDS011;11821;51.456;8.844;2023-04-03T01:08:36;16.45;;;9.25;;
23304;SDS011;11821;51.456;8.844;2023-04-03T01:11:03;6.88;;;3.60;;
23304;SDS011;11821;51.456;8.844;2023-04-03T01:13:31;15.40;;;6.10;;
23304;SDS011;11821;51.456;8.844;2023-04-03T01:16:02;14.40;;;7.55;;
23304;SDS011;11821;51.456;8.844;2023-04-03T01:18:29;8.68;;;4.47;;
23304;SDS011;11821;51.456;8.844;2023-04-03T01:26:15;4.85;;;2.28;;
23304;SDS011;11821;51.456;8.844;2023-04-03T01:28:42;3.95;;;2.10;;
23304;SDS011;11821;51.456;8.844;2023-04-03T01:33:35;5.75;;;2.90;;
23304;SDS011;11821;51.456;8.844;2023-04-03T01:36:01;10.60;;;4.32;;
23304;SDS011;11821;51.456;8.844;2023-04-03T01:38:29;8.45;;;3.40;;
23304;SDS011;11821;51.456;8.844;2023-04-03T01:40:56;6.65;;;2.65;;
23304;SDS011;11821;51.456;8.844;2023-04-03T01:43:22;4.07;;;1.55;;
23304;SDS011;11821;51.456;8.844;2023-04-03T01:45:49;2.55;;;1.52;;
23304;SDS011;11821;51.456;8.844;2023-04-03T01:48:18;4.05;;;1.52;;
23304;SDS011;11821;51.456;8.844;2023-04-03T01:50:44;4.00;;;1.38;;
23304;SDS011;11821;51.456;8.844;2023-04-03T01:53:11;12.65;;;1.92;;
23304;SDS011;11821;51.456;8.844;2023-04-03T01:55:38;3.90;;;1.70;;
23304;SDS011;11821;51.456;8.844;2023-04-03T01:58:05;3.40;;;1.70;;
23304;SDS011;11821;51.456;8.844;2023-04-03T02:00:31;6.75;;;1.35;;
23304;SDS011;11821;51.456;8.844;2023-04-03T02:02:58;5.18;;;1.30;;
23304;SDS011;11821;51.456;8.844;2023-04-03T02:05:25;5.07;;;1.40;;
23304;SDS011;11821;51.456;8.844;2023-04-03T02:07:52;6.75;;;1.40;;
23304;SDS011;11821;51.456;8.844;2023-04-03T02:10:18;6.43;;;1.65;;
23304;SDS011;11821;51.456;8.844;2023-04-03T02:12:45;3.85;;;1.83;;
23304;SDS011;11821;51.456;8.844;2023-04-03T02:15:12;5.65;;;1.90;;
23304;SDS011;11821;51.456;8.844;2023-04-03T02:17:38;7.28;;;1.60;;
23304;SDS011;11821;51.456;8.844;2023-04-03T02:20:05;4.40;;;1.42;;
23304;SDS011;11821;51.456;8.844;2023-04-03T02:22:32;4.72;;;1.33;;
23304;SDS011;11821;51.456;8.844;2023-04-03T02:24:59;3.25;;;1.05;;
23304;SDS011;11821;51.456;8.844;2023-04-03T02:27:26;3.97;;;1.20;;
23304;SDS011;11821;51.456;8.844;2023-04-03T02:29:53;4.68;;;1.50;;
23304;SDS011;11821;51.456;8.844;2023-04-03T02:32:19;5.75;;;1.67;;
23304;SDS011;11821;51.456;8.844;2023-04-03T02:34:46;2.63;;;1.02;;
23304;SDS011;11821;51.456;8.844;2023-04-03T02:37:14;3.50;;;1.55;;
23304;SDS011;11821;51.456;8.844;2023-04-03T02:39:42;4.65;;;1.65;;
23304;SDS011;11821;51.456;8.844;2023-04-03T02:42:08;7.45;;;1.63;;
23304;SDS011;11821;51.456;8.844;2023-04-03T02:44:36;5.05;;;1.30;;
23304;SDS011;11821;51.456;8.844;2023-04-03T02:47:02;4.13;;;1.63;;
23304;SDS011;11821;51.456;8.844;2023-04-03T02:49:29;5.43;;;1.60;;
23304;SDS011;11821;51.456;8.844;2023-04-03T02:51:55;9.18;;;1.65;;
23304;SDS011;11821;51.456;8.844;2023-04-03T02:54:22;3.15;;;1.20;;
23304;SDS011;11821;51.456;8.844;2023-04-03T02:56:53;2.58;;;1.40;;
23304;SDS011;11821;51.456;8.844;2023-04-03T02:59:19;10.02;;;1.63;;
23304;SDS011;11821;51.456;8.844;2023-04-03T03:01:46;3.28;;;1.40;;
23304;SDS011;11821;51.456;8.844;2023-04-03T03:04:13;2.95;;;1.58;;
23304;SDS011;11821;51.456;8.844;2023-04-03T03:06:39;5.88;;;1.75;;
23304;SDS011;11821;51.456;8.844;2023-04-03T03:09:07;3.05;;;1.13;;
23304;SDS011;11821;51.456;8.844;2023-04-03T03:11:33;3.67;;;1.30;;
23304;SDS011;11821;51.456;8.844;2023-04-03T03:14:02;6.75;;;1.63;;
23304;SDS011;11821;51.456;8.844;2023-04-03T03:16:28;3.70;;;1.10;;
23304;SDS011;11821;51.456;8.844;2023-04-03T03:18:55;7.20;;;2.13;;
23304;SDS011;11821;51.456;8.844;2023-04-03T03:21:22;3.30;;;1.20;;
23304;SDS011;11821;51.456;8.844;2023-04-03T03:23:48;8.73;;;2.00;;
23304;SDS011;11821;51.456;8.844;2023-04-03T03:26:15;4.13;;;1.50;;
23304;SDS011;11821;51.456;8.844;2023-04-03T03:28:41;6.65;;;1.95;;
23304;SDS011;11821;51.456;8.844;2023-04-03T03:31:10;4.05;;;1.25;;
23304;SDS011;11821;51.456;8.844;2023-04-03T03:33:38;5.18;;;1.80;;
23304;SDS011;11821;51.456;8.844;2023-04-03T03:36:05;4.20;;;1.33;;
23304;SDS011;11821;51.456;8.844;2023-04-03T03:38:32;2.15;;;1.30;;
23304;SDS011;11821;51.456;8.844;2023-04-03T03:41:00;3.92;;;1.40;;
23304;SDS011;11821;51.456;8.844;2023-04-03T03:43:29;4.70;;;1.20;;
23304;SDS011;11821;51.456;8.844;2023-04-03T03:45:55;4.43;;;1.52;;
23304;SDS011;11821;51.456;8.844;2023-04-03T03:48:23;6.25;;;4.03;;
23304;SDS011;11821;51.456;8.844;2023-04-03T03:50:51;4.40;;;1.90;;
23304;SDS011;11821;51.456;8.844;2023-04-03T03:53:20;4.30;;;1.80;;
23304;SDS011;11821;51.456;8.844;2023-04-03T03:55:49;3.95;;;1.30;;
23304;SDS011;11821;51.456;8.844;2023-04-03T03:58:18;4.97;;;1.60;;
23304;SDS011;11821;51.456;8.844;2023-04-03T04:00:45;4.00;;;1.67;;
23304;SDS011;11821;51.456;8.844;2023-04-03T04:03:12;6.38;;;1.50;;
23304;SDS011;11821;51.456;8.844;2023-04-03T04:05:41;5.80;;;2.72;;
23304;SDS011;11821;51.456;8.844;2023-04-03T04:08:17;3.35;;;2.00;;
23304;SDS011;11821;51.456;8.844;2023-04-03T04:10:45;4.03;;;2.15;;
23304;SDS011;11821;51.456;8.844;2023-04-03T04:13:13;11.68;;;2.28;;
23304;SDS011;11821;51.456;8.844;2023-04-03T04:15:42;6.18;;;1.35;;
23304;SDS011;11821;51.456;8.844;2023-04-03T04:18:09;6.15;;;2.63;;
23304;SDS011;11821;51.456;8.844;2023-04-03T04:20:36;19.02;;;5.63;;
23304;SDS011;11821;51.456;8.844;2023-04-03T04:23:07;8.13;;;3.92;;
23304;SDS011;11821;51.456;8.844;2023-04-03T04:25:35;24.70;;;11.75;;
23304;SDS011;11821;51.456;8.844;2023-04-03T04:28:01;82.15;;;36.42;;
23304;SDS011;11821;51.456;8.844;2023-04-03T04:30:28;74.65;;;31.15;;
23304;SDS011;11821;51.456;8.844;2023-04-03T04:32:57;16.23;;;7.28;;
23304;SDS011;11821;51.456;8.844;2023-04-03T04:35:24;9.07;;;3.92;;
23304;SDS011;11821;51.456;8.844;2023-04-03T04:37:52;5.40;;;3.58;;
23304;SDS011;11821;51.456;8.844;2023-04-03T04:40:19;6.07;;;3.22;;
23304;SDS011;11821;51.456;8.844;2023-04-03T04:42:47;6.63;;;2.70;;
23304;SDS011;11821;51.456;8.844;2023-04-03T04:45:24;7.88;;;3.15;;
23304;SDS011;11821;51.456;8.844;2023-04-03T04:47:51;6.63;;;3.03;;
23304;SDS011;11821;51.456;8.844;2023-04-03T04:50:19;10.40;;;3.15;;
23304;SDS011;11821;51.456;8.844;2023-04-03T04:52:49;12.88;;;5.32;;
23304;SDS011;11821;51.456;8.844;2023-04-03T04:55:16;10.15;;;3.83;;
23304;SDS011;11821;51.456;8.844;2023-04-03T04:57:42;11.10;;;3.83;;
23304;SDS011;11821;51.456;8.844;2023-04-03T05:00:09;21.38;;;8.55;;
23304;SDS011;11821;51.456;8.844;2023-04-03T05:02:37;10.43;;;5.07;;
23304;SDS011;11821;51.456;8.844;2023-04-03T05:05:07;11.00;;;4.53;;
23304;SDS011;11821;51.456;8.844;2023-04-03T05:07:34;12.65;;;6.68;;
23304;SDS011;11821;51.456;8.844;2023-04-03T05:10:02;13.25;;;5.53;;
23304;SDS011;11821;51.456;8.844;2023-04-03T05:12:30;12.15;;;5.93;;
23304;SDS011;11821;51.456;8.844;2023-04-03T05:15:00;13.80;;;5.32;;
23304;SDS011;11821;51.456;8.844;2023-04-03T05:17:28;12.18;;;5.75;;
23304;SDS011;11821;51.456;8.844;2023-04-03T05:19:56;11.73;;;5.20;;
23304;SDS011;11821;51.456;8.844;2023-04-03T05:22:24;8.27;;;3.17;;
23304;SDS011;11821;51.456;8.844;2023-04-03T05:24:54;13.30;;;5.55;;
23304;SDS011;11821;51.456;8.844;2023-04-03T05:27:22;7.38;;;3.35;;
23304;SDS011;11821;51.456;8.844;2023-04-03T05:29:52;5.85;;;2.85;;
23304;SDS011;11821;51.456;8.844;2023-04-03T05:32:21;6.63;;;3.42;;
23304;SDS011;11821;51.456;8.844;2023-04-03T05:34:53;5.72;;;2.67;;
23304;SDS011;11821;51.456;8.844;2023-04-03T05:37:20;6.30;;;2.83;;
23304;SDS011;11821;51.456;8.844;2023-04-03T05:39:47;12.32;;;5.90;;
23304;SDS011;11821;51.456;8.844;2023-04-03T05:42:14;8.90;;;4.45;;
23304;SDS011;11821;51.456;8.844;2023-04-03T05:44:41;8.10;;;4.05;;
23304;SDS011;11821;51.456;8.844;2023-04-03T05:47:08;11.27;;;4.25;;
23304;SDS011;11821;51.456;8.844;2023-04-03T05:49:35;6.93;;;3.40;;
23304;SDS011;11821;51.456;8.844;2023-04-03T05:52:04;7.88;;;3.33;;
23304;SDS011;11821;51.456;8.844;2023-04-03T05:54:32;6.78;;;3.00;;
23304;SDS011;11821;51.456;8.844;2023-04-03T05:57:09;8.27;;;2.85;;
23304;SDS011;11821;51.456;8.844;2023-04-03T05:59:36;6.47;;;2.28;;
23304;SDS011;11821;51.456;8.844;2023-04-03T06:02:03;6.15;;;2.88;;
23304;SDS011;11821;51.456;8.844;2023-04-03T06:04:30;8.18;;;3.17;;
23304;SDS011;11821;51.456;8.844;2023-04-03T06:06:57;7.53;;;2.65;;
23304;SDS011;11821;51.456;8.844;2023-04-03T06:09:25;9.00;;;2.67;;
23304;SDS011;11821;51.456;8.844;2023-04-03T06:11:54;3.45;;;2.28;;
23304;SDS011;11821;51.456;8.844;2023-04-03T06:14:23;8.30;;;3.22;;
23304;SDS011;11821;51.456;8.844;2023-04-03T06:16:49;8.35;;;3.45;;
23304;SDS011;11821;51.456;8.844;2023-04-03T06:19:16;4.20;;;2.00;;
23304;SDS011;11821;51.456;8.844;2023-04-03T06:21:47;6.07;;;2.50;;
23304;SDS011;11821;51.456;8.844;2023-04-03T06:24:14;12.30;;;2.53;;
23304;SDS011;11821;51.456;8.844;2023-04-03T06:26:41;5.45;;;1.88;;
23304;SDS011;11821;51.456;8.844;2023-04-03T06:29:08;5.70;;;2.58;;
23304;SDS011;11821;51.456;8.844;2023-04-03T06:31:35;4.70;;;2.10;;
23304;SDS011;11821;51.456;8.844;2023-04-03T06:34:05;8.07;;;2.42;;
23304;SDS011;11821;51.456;8.844;2023-04-03T06:36:36;7.10;;;2.07;;
23304;SDS011;11821;51.456;8.844;2023-04-03T06:39:03;4.88;;;2.85;;
23304;SDS011;11821;51.456;8.844;2023-04-03T06:41:29;5.47;;;2.25;;
23304;SDS011;11821;51.456;8.844;2023-04-03T06:43:56;7.32;;;1.90;;
23304;SDS011;11821;51.456;8.844;2023-04-03T06:46:24;6.00;;;2.17;;
23304;SDS011;11821;51.456;8.844;2023-04-03T06:48:51;6.20;;;2.65;;
23304;SDS011;11821;51.456;8.844;2023-04-03T06:51:19;4.07;;;1.58;;
23304;SDS011;11821;51.456;8.844;2023-04-03T06:53:49;6.15;;;1.40;;
23304;SDS011;11821;51.456;8.844;2023-04-03T06:56:16;4.72;;;1.83;;
23304;SDS011;11821;51.456;8.844;2023-04-03T06:58:43;5.75;;;1.42;;
23304;SDS011;11821;51.456;8.844;2023-04-03T07:01:11;3.47;;;1.38;;
23304;SDS011;11821;51.456;8.844;2023-04-03T07:03:38;3.95;;;1.50;;
23304;SDS011;11821;51.456;8.844;2023-04-03T07:06:05;3.45;;;0.98;;
23304;SDS011;11821;51.456;8.844;2023-04-03T07:08:33;5.65;;;1.40;;
23304;SDS011;11821;51.456;8.844;2023-04-03T07:11:00;4.95;;;1.30;;
23304;SDS011;11821;51.456;8.844;2023-04-03T07:13:27;3.25;;;1.27;;
23304;SDS011;11821;51.456;8.844;2023-04-03T07:15:54;6.13;;;1.50;;
23304;SDS011;11821;51.456;8.844;2023-04-03T07:18:21;5.03;;;3.20;;
23304;SDS011;11821;51.456;8.844;2023-04-03T07:20:47;8.57;;;4.10;;
23304;SDS011;11821;51.456;8.844;2023-04-03T07:23:14;4.28;;;0.95;;
23304;SDS011;11821;51.456;8.844;2023-04-03T07:25:44;3.78;;;1.05;;
23304;SDS011;11821;51.456;8.844;2023-04-03T07:28:12;5.00;;;1.25;;
23304;SDS011;11821;51.456;8.844;2023-04-03T07:30:42;5.40;;;1.55;;
23304;SDS011;11821;51.456;8.844;2023-04-03T07:33:09;5.93;;;1.55;;
23304;SDS011;11821;51.456;8.844;2023-04-03T07:35:36;2.95;;;1.40;;
23304;SDS011;11821;51.456;8.844;2023-04-03T07:38:02;8.02;;;1.27;;
23304;SDS011;11821;51.456;8.844;2023-04-03T07:40:29;6.35;;;1.38;;
23304;SDS011;11821;51.456;8.844;2023-04-03T07:42:55;4.90;;;1.38;;
23304;SDS011;11821;51.456;8.844;2023-04-03T07:45:22;3.05;;;1.20;;
23304;SDS011;11821;51.456;8.844;2023-04-03T07:47:49;2.85;;;1.00;;
23304;SDS011;11821;51.456;8.844;2023-04-03T07:50:16;5.30;;;1.35;;
23304;SDS011;11821;51.456;8.844;2023-04-03T07:52:43;3.85;;;1.38;;
23304;SDS011;11821;51.456;8.844;2023-04-03T07:55:09;3.67;;;1.33;;
23304;SDS011;11821;51.456;8.844;2023-04-03T07:57:36;4.93;;;1.40;;
23304;SDS011;11821;51.456;8.844;2023-04-03T08:00:03;2.78;;;1.55;;
23304;SDS011;11821;51.456;8.844;2023-04-03T08:02:37;4.50;;;1.40;;
23304;SDS011;11821;51.456;8.844;2023-04-03T08:05:04;3.78;;;1.27;;
23304;SDS011;11821;51.456;8.844;2023-04-03T08:07:31;3.53;;;1.20;;
23304;SDS011;11821;51.456;8.844;2023-04-03T08:09:57;4.90;;;1.33;;
23304;SDS011;11821;51.456;8.844;2023-04-03T08:12:24;3.95;;;1.55;;
23304;SDS011;11821;51.456;8.844;2023-04-03T08:14:50;3.85;;;0.98;;
23304;SDS011;11821;51.456;8.844;2023-04-03T08:17:17;2.45;;;0.93;;
23304;SDS011;11821;51.456;8.844;2023-04-03T08:19:43;2.58;;;1.33;;
23304;SDS011;11821;51.456;8.844;2023-04-03T08:22:10;2.95;;;0.90;;
23304;SDS011;11821;51.456;8.844;2023-04-03T08:24:37;3.05;;;1.13;;
23304;SDS011;11821;51.456;8.844;2023-04-03T08:27:03;4.53;;;1.35;;
23304;SDS011;11821;51.456;8.844;2023-04-03T08:29:30;3.03;;;1.02;;
23304;SDS011;11821;51.456;8.844;2023-04-03T08:31:56;3.10;;;0.80;;
23304;SDS011;11821;51.456;8.844;2023-04-03T08:34:23;2.95;;;1.00;;
23304;SDS011;11821;51.456;8.844;2023-04-03T08:36:50;1.73;;;0.70;;
23304;SDS011;11821;51.456;8.844;2023-04-03T08:39:16;1.75;;;0.80;;
23304;SDS011;11821;51.456;8.844;2023-04-03T08:41:44;2.47;;;0.98;;
23304;SDS011;11821;51.456;8.844;2023-04-03T08:44:14;1.70;;;0.93;;
23304;SDS011;11821;51.456;8.844;2023-04-03T08:49:15;4.00;;;1.25;;
23304;SDS011;11821;51.456;8.844;2023-04-03T08:51:45;2.22;;;1.30;;
23304;SDS011;11821;51.456;8.844;2023-04-03T08:54:20;3.60;;;1.08;;
23304;SDS011;11821;51.456;8.844;2023-04-03T08:56:48;2.90;;;1.20;;
23304;SDS011;11821;51.456;8.844;2023-04-03T08:59:16;2.13;;;0.80;;
23304;SDS011;11821;51.456;8.844;2023-04-03T09:01:44;0.80;;;0.70;;
23304;SDS011;11821;51.456;8.844;2023-04-03T09:04:15;2.65;;;0.80;;
23304;SDS011;11821;51.456;8.844;2023-04-03T09:06:42;2.28;;;0.73;;
23304;SDS011;11821;51.456;8.844;2023-04-03T09:09:13;2.78;;;0.90;;
23304;SDS011;11821;51.456;8.844;2023-04-03T09:16:56;2.08;;;1.00;;
23304;SDS011;11821;51.456;8.844;2023-04-03T09:21:51;4.00;;;0.80;;
23304;SDS011;11821;51.456;8.844;2023-04-03T09:24:17;2.22;;;0.80;;
23304;SDS011;11821;51.456;8.844;2023-04-03T09:27:01;16.25;;;5.70;;
23304;SDS011;11821;51.456;8.844;2023-04-03T09:29:31;2.53;;;0.65;;
23304;SDS011;11821;51.456;8.844;2023-04-03T09:31:59;2.38;;;0.63;;
23304;SDS011;11821;51.456;8.844;2023-04-03T09:34:35;2.15;;;1.10;;
23304;SDS011;11821;51.456;8.844;2023-04-03T09:37:03;1.73;;;0.70;;
23304;SDS011;11821;51.456;8.844;2023-04-03T09:39:55;1.00;;;0.80;;
23304;SDS011;11821;51.456;8.844;2023-04-03T09:42:22;1.45;;;0.70;;
23304;SDS011;11821;51.456;8.844;2023-04-03T09:44:56;2.53;;;1.27;;
23304;SDS011;11821;51.456;8.844;2023-04-03T09:47:27;3.50;;;0.73;;
23304;SDS011;11821;51.456;8.844;2023-04-03T09:52:54;1.88;;;0.70;;
23304;SDS011;11821;51.456;8.844;2023-04-03T09:57:53;2.50;;;0.65;;
23304;SDS011;11821;51.456;8.844;2023-04-03T10:00:23;3.40;;;0.88;;
23304;SDS011;11821;51.456;8.844;2023-04-03T10:02:52;1.10;;;0.52;;
23304;SDS011;11821;51.456;8.844;2023-04-03T10:05:29;1.70;;;0.75;;
23304;SDS011;11821;51.456;8.844;2023-04-03T10:10:43;3.75;;;0.73;;
23304;SDS011;11821;51.456;8.844;2023-04-03T10:13:13;1.20;;;0.68;;
23304;SDS011;11821;51.456;8.844;2023-04-03T10:15:43;1.30;;;0.70;;
23304;SDS011;11821;51.456;8.844;2023-04-03T10:20:44;1.88;;;0.88;;
23304;SDS011;11821;51.456;8.844;2023-04-03T10:23:17;2.38;;;0.68;;
23304;SDS011;11821;51.456;8.844;2023-04-03T10:28:27;3.45;;;0.85;;
23304;SDS011;11821;51.456;8.844;2023-04-03T10:31:14;3.00;;;1.17;;
23304;SDS011;11821;51.456;8.844;2023-04-03T10:33:47;2.25;;;0.88;;
23304;SDS011;11821;51.456;8.844;2023-04-03T10:36:25;1.85;;;0.75;;
23304;SDS011;11821;51.456;8.844;2023-04-03T10:38:59;3.08;;;0.70;;
23304;SDS011;11821;51.456;8.844;2023-04-03T10:41:39;1.70;;;0.80;;
23304;SDS011;11821;51.456;8.844;2023-04-03T10:44:12;1.90;;;0.80;;
23304;SDS011;11821;51.456;8.844;2023-04-03T10:51:47;1.88;;;0.70;;
23304;SDS011;11821;51.456;8.844;2023-04-03T10:54:23;0.93;;;0.77;;
23304;SDS011;11821;51.456;8.844;2023-04-03T10:57:09;2.55;;;1.15;;
23304;SDS011;11821;51.456;8.844;2023-04-03T10:59:38;0.98;;;0.60;;
23304;SDS011;11821;51.456;8.844;2023-04-03T11:02:24;1.75;;;0.65;;
23304;SDS011;11821;51.456;8.844;2023-04-03T11:04:53;2.35;;;0.80;;
23304;SDS011;11821;51.456;8.844;2023-04-03T11:07:23;4.35;;;0.88;;
23304;SDS011;11821;51.456;8.844;2023-04-03T11:09:52;1.50;;;0.80;;
23304;SDS011;11821;51.456;8.844;2023-04-03T11:12:25;3.80;;;1.17;;
23304;SDS011;11821;51.456;8.844;2023-04-03T11:14:53;1.58;;;0.60;;
23304;SDS011;11821;51.456;8.844;2023-04-03T11:17:38;2.03;;;0.90;;
23304;SDS011;11821;51.456;8.844;2023-04-03T11:20:27;1.90;;;0.88;;
23304;SDS011;11821;51.456;8.844;2023-04-03T11:23:00;3.33;;;0.70;;
23304;SDS011;11821;51.456;8.844;2023-04-03T11:25:29;1.95;;;0.73;;
23304;SDS011;11821;51.456;8.844;2023-04-03T11:27:59;3.13;;;0.90;;
23304;SDS011;11821;51.456;8.844;2023-04-03T11:30:31;2.67;;;0.80;;
23304;SDS011;11821;51.456;8.844;2023-04-03T11:33:03;2.00;;;0.77;;
23304;SDS011;11821;51.456;8.844;2023-04-03T11:35:32;2.40;;;1.13;;
23304;SDS011;11821;51.456;8.844;2023-04-03T11:37:58;1.80;;;0.68;;
23304;SDS011;11821;51.456;8.844;2023-04-03T11:40:31;1.75;;;0.63;;
23304;SDS011;11821;51.456;8.844;2023-04-03T11:47:56;3.85;;;0.70;;
23304;SDS011;11821;51.456;8.844;2023-04-03T11:50:44;1.85;;;0.70;;
23304;SDS011;11821;51.456;8.844;2023-04-03T11:58:11;2.05;;;0.70;;
23304;SDS011;11821;51.456;8.844;2023-04-03T12:05:57;2.15;;;0.80;;
23304;SDS011;11821;51.456;8.844;2023-04-03T12:08:50;3.03;;;0.80;;
23304;SDS011;11821;51.456;8.844;2023-04-03T12:11:31;1.58;;;0.73;;
23304;SDS011;11821;51.456;8.844;2023-04-03T12:24:00;1.73;;;0.80;;
23304;SDS011;11821;51.456;8.844;2023-04-03T12:29:21;2.20;;;0.88;;
23304;SDS011;11821;51.456;8.844;2023-04-03T12:34:56;2.10;;;0.90;;
23304;SDS011;11821;51.456;8.844;2023-04-03T12:40:02;3.08;;;1.08;;
23304;SDS011;11821;51.456;8.844;2023-04-03T12:45:20;2.58;;;0.90;;
23304;SDS011;11821;51.456;8.844;2023-04-03T12:47:48;3.35;;;0.80;;
23304;SDS011;11821;51.456;8.844;2023-04-03T12:50:20;1.08;;;0.60;;
23304;SDS011;11821;51.456;8.844;2023-04-03T12:53:05;3.28;;;0.77;;
23304;SDS011;11821;51.456;8.844;2023-04-03T12:55:32;2.65;;;0.63;;
23304;SDS011;11821;51.456;8.844;2023-04-03T13:06:02;2.67;;;1.00;;
23304;SDS011;11821;51.456;8.844;2023-04-03T13:08:29;4.00;;;1.60;;
23304;SDS011;11821;51.456;8.844;2023-04-03T13:11:06;2.53;;;0.70;;
23304;SDS011;11821;51.456;8.844;2023-04-03T13:13:36;1.55;;;0.80;;
23304;SDS011;11821;51.456;8.844;2023-04-03T13:16:08;2.33;;;0.98;;
23304;SDS011;11821;51.456;8.844;2023-04-03T13:18:36;3.25;;;0.85;;
23304;SDS011;11821;51.456;8.844;2023-04-03T13:21:04;2.60;;;1.30;;
23304;SDS011;11821;51.456;8.844;2023-04-03T13:23:32;4.72;;;2.30;;
23304;SDS011;11821;51.456;8.844;2023-04-03T13:26:00;3.47;;;1.00;;
23304;SDS011;11821;51.456;8.844;2023-04-03T13:28:29;1.48;;;0.80;;
23304;SDS011;11821;51.456;8.844;2023-04-03T13:33:24;1.83;;;1.38;;
23304;SDS011;11821;51.456;8.844;2023-04-03T13:36:04;6.60;;;3.10;;
23304;SDS011;11821;51.456;8.844;2023-04-03T13:38:35;7.30;;;1.00;;
23304;SDS011;11821;51.456;8.844;2023-04-03T13:41:23;4.22;;;0.75;;
23304;SDS011;11821;51.456;8.844;2023-04-03T13:43:50;5.63;;;1.10;;
23304;SDS011;11821;51.456;8.844;2023-04-03T13:48:44;4.03;;;0.85;;
23304;SDS011;11821;51.456;8.844;2023-04-03T13:53:43;2.80;;;0.90;;
23304;SDS011;11821;51.456;8.844;2023-04-03T13:56:29;4.47;;;1.80;;
23304;SDS011;11821;51.456;8.844;2023-04-03T13:59:01;3.13;;;1.70;;
23304;SDS011;11821;51.456;8.844;2023-04-03T14:03:56;1.50;;;0.82;;
23304;SDS011;11821;51.456;8.844;2023-04-03T14:06:23;2.15;;;0.90;;
23304;SDS011;11821;51.456;8.844;2023-04-03T14:08:50;5.38;;;1.10;;
23304;SDS011;11821;51.456;8.844;2023-04-03T14:11:21;3.50;;;1.25;;
23304;SDS011;11821;51.456;8.844;2023-04-03T14:13:49;3.75;;;1.42;;
23304;SDS011;11821;51.456;8.844;2023-04-03T14:16:20;4.72;;;3.28;;
23304;SDS011;11821;51.456;8.844;2023-04-03T14:18:47;1.70;;;0.80;;
23304;SDS011;11821;51.456;8.844;2023-04-03T14:21:16;1.25;;;0.80;;
23304;SDS011;11821;51.456;8.844;2023-04-03T14:23:43;2.05;;;0.93;;
23304;SDS011;11821;51.456;8.844;2023-04-03T14:26:14;2.65;;;1.02;;
23304;SDS011;11821;51.456;8.844;2023-04-03T14:28:42;2.85;;;1.05;;
23304;SDS011;11821;51.456;8.844;2023-04-03T14:31:10;2.92;;;1.20;;
23304;SDS011;11821;51.456;8.844;2023-04-03T14:33:37;2.35;;;1.40;;
23304;SDS011;11821;51.456;8.844;2023-04-03T14:36:37;2.97;;;1.00;;
23304;SDS011;11821;51.456;8.844;2023-04-03T14:38:57;3.45;;;0.70;;
23304;SDS011;11821;51.456;8.844;2023-04-03T14:41:24;1.60;;;0.80;;
23304;SDS011;11821;51.456;8.844;2023-04-03T14:43:51;4.20;;;2.08;;
23304;SDS011;11821;51.456;8.844;2023-04-03T14:46:18;4.78;;;1.17;;
23304;SDS011;11821;51.456;8.844;2023-04-03T14:48:46;2.60;;;0.90;;
23304;SDS011;11821;51.456;8.844;2023-04-03T14:51:13;3.33;;;1.10;;
23304;SDS011;11821;51.456;8.844;2023-04-03T14:53:40;1.55;;;0.93;;
23304;SDS011;11821;51.456;8.844;2023-04-03T14:56:11;1.10;;;0.80;;
23304;SDS011;11821;51.456;8.844;2023-04-03T14:58:38;1.85;;;0.70;;
23304;SDS011;11821;51.456;8.844;2023-04-03T15:01:05;1.92;;;0.90;;
23304;SDS011;11821;51.456;8.844;2023-04-03T15:03:31;2.45;;;0.95;;
23304;SDS011;11821;51.456;8.844;2023-04-03T15:05:58;1.10;;;0.60;;
23304;SDS011;11821;51.456;8.844;2023-04-03T15:08:25;1.40;;;0.88;;
23304;SDS011;11821;51.456;8.844;2023-04-03T15:10:52;2.45;;;1.23;;
23304;SDS011;11821;51.456;8.844;2023-04-03T15:13:21;3.97;;;1.00;;
23304;SDS011;11821;51.456;8.844;2023-04-03T15:15:48;1.60;;;0.60;;
23304;SDS011;11821;51.456;8.844;2023-04-03T15:18:18;3.22;;;1.85;;
23304;SDS011;11821;51.456;8.844;2023-04-03T15:20:46;3.47;;;2.47;;
23304;SDS011;11821;51.456;8.844;2023-04-03T15:23:13;2.15;;;0.80;;
23304;SDS011;11821;51.456;8.844;2023-04-03T15:25:42;3.88;;;1.60;;
23304;SDS011;11821;51.456;8.844;2023-04-03T15:28:11;1.92;;;0.90;;
23304;SDS011;11821;51.456;8.844;2023-04-03T15:30:41;1.90;;;0.90;;
23304;SDS011;11821;51.456;8.844;2023-04-03T15:33:08;3.55;;;2.38;;
23304;SDS011;11821;51.456;8.844;2023-04-03T15:35:34;3.47;;;1.63;;
23304;SDS011;11821;51.456;8.844;2023-04-03T15:38:01;2.88;;;1.30;;
23304;SDS011;11821;51.456;8.844;2023-04-03T15:40:27;1.73;;;1.10;;
23304;SDS011;11821;51.456;8.844;2023-04-03T15:42:54;2.83;;;1.08;;
23304;SDS011;11821;51.456;8.844;2023-04-03T15:45:21;2.38;;;0.88;;
23304;SDS011;11821;51.456;8.844;2023-04-03T15:47:48;2.25;;;1.25;;
23304;SDS011;11821;51.456;8.844;2023-04-03T15:50:14;2.85;;;1.60;;
23304;SDS011;11821;51.456;8.844;2023-04-03T15:52:41;2.92;;;1.35;;
23304;SDS011;11821;51.456;8.844;2023-04-03T15:55:07;3.45;;;1.27;;
23304;SDS011;11821;51.456;8.844;2023-04-03T15:57:34;7.70;;;2.60;;
23304;SDS011;11821;51.456;8.844;2023-04-03T16:00:00;3.75;;;1.13;;
23304;SDS011;11821;51.456;8.844;2023-04-03T16:02:32;3.70;;;1.98;;
23304;SDS011;11821;51.456;8.844;2023-04-03T16:04:59;2.70;;;1.00;;
23304;SDS011;11821;51.456;8.844;2023-04-03T16:07:26;2.80;;;0.90;;
23304;SDS011;11821;51.456;8.844;2023-04-03T16:09:52;4.15;;;1.40;;
23304;SDS011;11821;51.456;8.844;2023-04-03T16:12:19;4.18;;;1.10;;
23304;SDS011;11821;51.456;8.844;2023-04-03T16:14:45;1.77;;;1.08;;
23304;SDS011;11821;51.456;8.844;2023-04-03T16:17:12;2.25;;;1.00;;
23304;SDS011;11821;51.456;8.844;2023-04-03T16:19:38;2.30;;;1.05;;
23304;SDS011;11821;51.456;8.844;2023-04-03T16:22:05;2.15;;;1.08;;
23304;SDS011;11821;51.456;8.844;2023-04-03T16:24:32;2.35;;;0.98;;
23304;SDS011;11821;51.456;8.844;2023-04-03T16:26:58;2.10;;;0.95;;